createdAt,value
2022-09-02T00:01:27.620Z,0.60
2022-09-02T00:05:39.389Z,0.80
2022-09-02T00:09:51.043Z,0.77
2022-09-02T00:14:07.177Z,0.80
2022-09-02T00:18:19.178Z,0.68
2022-09-02T00:22:30.836Z,0.70
2022-09-02T00:26:42.393Z,0.40
2022-09-02T00:30:53.951Z,0.50
2022-09-02T00:35:06.437Z,0.75
2022-09-02T00:39:18.409Z,0.50
2022-09-02T00:43:47.444Z,0.60
2022-09-02T00:47:58.974Z,0.50
2022-09-02T00:52:17.290Z,0.70
2022-09-02T00:56:31.404Z,0.70
2022-09-02T01:00:46.540Z,0.70
2022-09-02T01:05:00.138Z,0.55
2022-09-02T01:09:15.041Z,0.50
2022-09-02T01:13:29.394Z,0.57
2022-09-02T01:17:46.035Z,0.85
2022-09-02T01:21:58.355Z,0.70
2022-09-02T01:26:10.769Z,0.73
2022-09-02T01:30:25.700Z,1.02
2022-09-02T01:34:37.656Z,0.90
2022-09-02T01:38:49.352Z,0.60
2022-09-02T01:43:14.151Z,0.73
2022-09-02T01:47:26.809Z,0.80
2022-09-02T01:51:40.523Z,0.60
2022-09-02T01:55:52.513Z,0.90
2022-09-02T02:00:07.167Z,0.68
2022-09-02T02:04:24.891Z,0.90
2022-09-02T02:08:38.872Z,0.50
2022-09-02T02:12:51.746Z,0.35
2022-09-02T02:17:05.865Z,0.60
2022-09-02T02:21:17.879Z,0.65
2022-09-02T02:25:32.557Z,0.60
2022-09-02T02:29:44.188Z,0.65
2022-09-02T02:33:56.009Z,0.70
2022-09-02T02:38:08.588Z,0.77
2022-09-02T02:42:20.265Z,0.60
2022-09-02T02:46:33.459Z,0.68
2022-09-02T02:50:45.486Z,0.55
2022-09-02T02:54:57.224Z,0.50
2022-09-02T02:59:08.935Z,0.52
2022-09-02T03:03:22.558Z,0.70
2022-09-02T03:07:37.705Z,0.50
2022-09-02T03:11:50.143Z,0.65
2022-09-02T03:16:04.459Z,0.60
2022-09-02T03:20:18.918Z,0.65
2022-09-02T03:24:35.446Z,0.82
2022-09-02T03:28:48.562Z,0.70
2022-09-02T03:33:04.228Z,0.50
2022-09-02T03:37:18.109Z,0.50
2022-09-02T03:41:29.924Z,0.60
2022-09-02T03:45:43.497Z,0.70
2022-09-02T03:49:58.266Z,0.45
2022-09-02T03:54:11.228Z,0.68
2022-09-02T03:58:24.353Z,0.60
2022-09-02T04:02:37.010Z,0.70
2022-09-02T04:06:48.912Z,0.40
2022-09-02T04:11:05.744Z,0.65
2022-09-02T04:15:19.328Z,0.98
2022-09-02T04:19:32.149Z,0.90
2022-09-02T04:23:44.576Z,0.60
2022-09-02T04:27:56.537Z,0.55
2022-09-02T04:32:08.855Z,0.68
2022-09-02T04:36:22.360Z,0.77
2022-09-02T04:40:46.778Z,0.60
2022-09-02T04:44:59.359Z,0.60
2022-09-02T04:49:12.103Z,0.90
2022-09-02T04:53:26.007Z,0.80
2022-09-02T04:57:37.883Z,0.63
2022-09-02T05:01:51.044Z,0.70
2022-09-02T05:06:11.376Z,0.90
2022-09-02T05:10:25.254Z,0.80
2022-09-02T05:14:37.183Z,0.70
2022-09-02T05:18:53.075Z,0.68
2022-09-02T05:23:07.399Z,0.80
2022-09-02T05:27:20.359Z,0.80
2022-09-02T05:31:34.690Z,0.80
2022-09-02T05:35:49.759Z,0.65
2022-09-02T05:40:02.303Z,0.60
2022-09-02T05:44:16.057Z,0.88
2022-09-02T05:48:47.322Z,0.85
2022-09-02T05:52:59.130Z,0.80
2022-09-02T05:57:14.116Z,0.60
2022-09-02T06:01:51.719Z,0.70
2022-09-02T06:06:06.865Z,0.70
2022-09-02T06:10:21.199Z,0.70
2022-09-02T06:14:35.058Z,1.15
2022-09-02T06:18:48.046Z,1.00
2022-09-02T06:22:59.926Z,0.95
2022-09-02T06:27:11.724Z,1.02
2022-09-02T06:31:27.872Z,1.00
2022-09-02T06:35:47.142Z,0.90
2022-09-02T06:40:01.811Z,1.02
2022-09-02T06:44:17.182Z,0.90
2022-09-02T06:48:29.743Z,1.00
2022-09-02T06:52:41.979Z,1.15
2022-09-02T06:56:55.334Z,1.00
2022-09-02T07:01:13.317Z,1.33
2022-09-02T07:05:25.848Z,1.20
2022-09-02T07:09:39.241Z,0.90
2022-09-02T07:14:01.689Z,0.77
2022-09-02T07:18:13.494Z,1.02
2022-09-02T07:22:29.361Z,1.00
2022-09-02T07:26:42.096Z,0.90
2022-09-02T07:30:59.490Z,1.05
2022-09-02T07:35:12.996Z,1.30
2022-09-02T07:39:25.784Z,1.00
2022-09-02T07:43:38.727Z,1.23
2022-09-02T07:47:50.953Z,1.10
2022-09-02T07:52:04.963Z,1.13
2022-09-02T07:56:18.152Z,1.40
2022-09-02T08:00:30.848Z,1.40
2022-09-02T08:04:48.472Z,1.27
2022-09-02T08:09:00.502Z,1.25
2022-09-02T08:13:12.727Z,1.15
2022-09-02T08:17:25.337Z,1.17
2022-09-02T08:21:37.025Z,1.10
2022-09-02T08:25:48.668Z,1.30
2022-09-02T08:30:01.453Z,1.05
2022-09-02T08:34:13.164Z,1.50
2022-09-02T08:38:24.800Z,1.42
2022-09-02T08:42:51.080Z,1.30
2022-09-02T08:47:07.339Z,1.15
2022-09-02T08:51:34.535Z,1.20
2022-09-02T08:55:56.197Z,1.40
2022-09-02T09:00:08.585Z,1.33
2022-09-02T09:04:56.802Z,1.40
2022-09-02T09:09:23.237Z,1.48
2022-09-02T09:13:47.140Z,1.35
2022-09-02T09:18:02.955Z,1.60
2022-09-02T09:22:18.137Z,0.95
2022-09-02T09:26:38.469Z,1.73
2022-09-02T09:30:50.078Z,1.33
2022-09-02T09:35:20.730Z,1.40
2022-09-02T09:39:32.600Z,1.48
2022-09-02T09:43:44.301Z,1.70
2022-09-02T09:48:11.030Z,1.42
2022-09-02T09:52:23.957Z,1.50
2022-09-02T09:56:37.559Z,1.30
2022-09-02T10:00:56.334Z,1.65
2022-09-02T10:05:19.241Z,1.70
2022-09-02T10:09:36.098Z,1.35
2022-09-02T10:13:47.895Z,1.58
2022-09-02T10:18:14.859Z,1.38
2022-09-02T10:23:11.113Z,1.45
2022-09-02T10:27:37.464Z,1.35
2022-09-02T10:32:17.378Z,1.52
2022-09-02T10:36:56.442Z,1.48
2022-09-02T10:46:00.517Z,1.63
2022-09-02T10:50:22.876Z,1.50
2022-09-02T10:54:37.472Z,1.40
2022-09-02T10:58:49.175Z,1.58
2022-09-02T11:03:18.148Z,1.60
2022-09-02T11:07:48.549Z,1.67
2022-09-02T11:12:07.812Z,1.70
2022-09-02T11:16:29.750Z,1.52
2022-09-02T11:20:50.918Z,1.45
2022-09-02T11:25:13.233Z,1.70
2022-09-02T11:29:37.360Z,1.67
2022-09-02T11:34:09.515Z,1.30
2022-09-02T11:38:34.451Z,1.45
2022-09-02T11:42:57.677Z,1.40
2022-09-02T11:47:33.724Z,1.60
2022-09-02T11:52:13.578Z,1.95
2022-09-02T11:56:30.577Z,1.45
2022-09-02T12:01:00.374Z,1.20
2022-09-02T12:05:30.403Z,1.50
2022-09-02T12:09:56.460Z,1.40
2022-09-02T12:14:32.659Z,1.30
2022-09-02T12:19:08.448Z,1.80
2022-09-02T12:23:48.833Z,1.45
2022-09-02T12:28:19.119Z,1.20
2022-09-02T12:33:03.212Z,1.42
2022-09-02T12:37:51.939Z,1.40
2022-09-02T12:42:12.584Z,1.30
2022-09-02T12:46:45.022Z,1.50
2022-09-02T12:50:58.920Z,1.63
2022-09-02T12:55:27.228Z,1.20
2022-09-02T12:59:41.709Z,1.67
2022-09-02T13:04:02.432Z,1.50
2022-09-02T13:08:39.859Z,1.20
2022-09-02T13:13:33.281Z,1.40
2022-09-02T13:17:47.094Z,1.90
2022-09-02T13:22:52.992Z,1.48
2022-09-02T13:27:42.110Z,1.40
2022-09-02T13:32:10.855Z,1.60
2022-09-02T13:36:28.363Z,1.50
2022-09-02T13:40:43.749Z,1.42
2022-09-02T13:45:09.991Z,1.40
2022-09-02T13:49:25.836Z,1.50
2022-09-02T13:54:05.465Z,1.80
2022-09-02T13:58:42.471Z,1.65
2022-09-02T14:03:00.578Z,1.35
2022-09-02T14:07:15.022Z,1.77
2022-09-02T14:11:28.333Z,1.70
2022-09-02T14:15:40.060Z,1.63
2022-09-02T14:20:07.473Z,1.70
2022-09-02T14:24:23.568Z,1.60
2022-09-02T14:28:36.196Z,1.52
2022-09-02T14:32:47.773Z,1.38
2022-09-02T14:36:59.627Z,1.40
2022-09-02T14:41:12.461Z,1.77
2022-09-02T14:45:29.914Z,1.55
2022-09-02T14:49:53.443Z,1.80
2022-09-02T14:54:06.421Z,1.40
2022-09-02T14:58:18.898Z,1.50
2022-09-02T15:02:35.815Z,1.30
2022-09-02T15:06:48.185Z,1.50
2022-09-02T15:11:00.994Z,1.70
2022-09-02T15:15:12.578Z,1.20
2022-09-02T15:19:24.213Z,1.20
2022-09-02T15:23:41.143Z,1.38
2022-09-02T15:27:53.036Z,1.30
2022-09-02T15:32:05.241Z,1.30
2022-09-02T15:36:17.050Z,1.40
2022-09-02T15:40:29.781Z,1.40
2022-09-02T15:44:41.455Z,1.35
2022-09-02T15:48:55.283Z,1.70
2022-09-02T15:53:08.425Z,1.50
2022-09-02T15:57:20.061Z,1.63
2022-09-02T16:01:34.414Z,1.52
2022-09-02T16:05:46.750Z,1.40
2022-09-02T16:10:03.177Z,1.48
2022-09-02T16:14:20.410Z,1.65
2022-09-02T16:18:34.282Z,1.30
2022-09-02T16:22:47.088Z,1.67
2022-09-02T16:26:58.706Z,1.30
2022-09-02T16:31:12.973Z,1.20
2022-09-02T16:35:24.669Z,1.38
2022-09-02T16:39:36.550Z,1.40
2022-09-02T16:43:48.248Z,1.50
2022-09-02T16:48:00.344Z,1.45
2022-09-02T16:52:12.556Z,1.50
2022-09-02T16:56:26.230Z,1.20
2022-09-02T17:00:41.339Z,1.65
2022-09-02T17:04:53.111Z,1.23
2022-09-02T17:09:04.956Z,1.33
2022-09-02T17:13:16.708Z,1.67
2022-09-02T17:17:28.486Z,1.10
2022-09-02T17:21:48.366Z,1.20
2022-09-02T17:26:01.519Z,1.38
2022-09-02T17:30:13.390Z,1.42
2022-09-02T17:34:26.052Z,1.00
2022-09-02T17:38:37.774Z,1.45
2022-09-02T17:42:49.573Z,1.30
2022-09-02T17:47:04.572Z,1.20
2022-09-02T17:51:19.704Z,1.20
2022-09-02T17:55:33.554Z,1.08
2022-09-02T18:00:01.406Z,1.25
2022-09-02T18:04:16.069Z,1.33
2022-09-02T18:08:39.484Z,1.40
2022-09-02T18:12:51.153Z,1.40
2022-09-02T18:17:19.479Z,1.40
2022-09-02T18:21:49.844Z,1.27
2022-09-02T18:26:18.140Z,1.60
2022-09-02T18:30:49.146Z,1.30
2022-09-02T18:35:19.583Z,1.50
2022-09-02T18:40:03.254Z,1.48
2022-09-02T18:44:29.222Z,1.60
2022-09-02T18:48:41.145Z,1.33
2022-09-02T18:52:56.660Z,1.40
2022-09-02T18:57:09.189Z,1.10
2022-09-02T19:01:29.859Z,1.10
2022-09-02T19:05:41.858Z,1.20
2022-09-02T19:09:55.060Z,1.20
2022-09-02T19:14:26.408Z,1.10
2022-09-02T19:18:37.951Z,1.20
2022-09-02T19:22:52.887Z,1.45
2022-09-02T19:27:12.274Z,1.30
2022-09-02T19:31:28.055Z,1.40
2022-09-02T19:35:46.486Z,1.20
2022-09-02T19:40:04.415Z,1.40
2022-09-02T19:44:17.460Z,1.40
2022-09-02T19:48:29.039Z,1.27
2022-09-02T19:52:45.421Z,1.38
2022-09-02T19:56:57.078Z,1.08
2022-09-02T20:01:08.879Z,1.20
2022-09-02T20:05:21.571Z,1.42
2022-09-02T20:09:33.217Z,1.40
2022-09-02T20:13:45.263Z,1.17
2022-09-02T20:18:11.734Z,1.13
2022-09-02T20:22:23.452Z,1.10
2022-09-02T20:27:12.776Z,1.20
2022-09-02T20:31:56.184Z,1.48
2022-09-02T20:36:19.978Z,1.40
2022-09-02T20:40:50.001Z,1.20
2022-09-02T20:45:33.371Z,1.20
2022-09-02T20:50:08.100Z,1.33
2022-09-02T20:54:44.780Z,1.20
2022-09-02T20:59:02.001Z,1.50
2022-09-02T21:03:16.939Z,1.35
2022-09-02T21:07:42.796Z,1.30
2022-09-02T21:12:03.160Z,1.30
2022-09-02T21:16:20.179Z,1.30
2022-09-02T21:20:47.598Z,1.35
2022-09-02T21:25:09.866Z,1.40
2022-09-02T21:29:38.478Z,1.40
2022-09-02T21:33:52.223Z,1.40
2022-09-02T21:38:34.006Z,1.25
2022-09-02T21:43:00.703Z,1.40
2022-09-02T21:47:23.649Z,1.20
2022-09-02T21:51:47.090Z,1.13
2022-09-02T21:56:32.558Z,1.30
2022-09-02T22:01:02.985Z,1.35
2022-09-02T22:05:47.659Z,1.30
2022-09-02T22:10:11.232Z,1.27
2022-09-02T22:14:28.929Z,1.00
2022-09-02T22:18:49.100Z,1.10
2022-09-02T22:23:09.107Z,1.10
2022-09-02T22:27:21.093Z,1.23
2022-09-02T22:31:37.727Z,1.15
2022-09-02T22:36:00.623Z,1.00
2022-09-02T22:40:15.881Z,1.10
2022-09-02T22:45:14.476Z,1.27
2022-09-02T22:49:30.831Z,1.17
2022-09-02T22:53:42.788Z,1.17
2022-09-02T22:58:24.333Z,1.13
2022-09-02T23:02:41.615Z,0.90
2022-09-02T23:07:05.050Z,1.60
2022-09-02T23:11:28.020Z,1.17
2022-09-02T23:16:04.861Z,1.40
2022-09-02T23:20:29.311Z,1.13
2022-09-02T23:25:13.874Z,1.10
2022-09-02T23:29:28.751Z,1.00
2022-09-02T23:33:54.859Z,1.02
2022-09-02T23:38:21.627Z,1.42
2022-09-02T23:42:33.262Z,1.45
2022-09-02T23:46:54.461Z,1.30
2022-09-02T23:51:17.503Z,1.00
2022-09-02T23:55:44.345Z,1.00
